Time;durP1;ratioP1;P1;durP2;ratioP2;P2;SDS_P1;SDS_P2;PMS_P1;PMS_P2;Temp;Humidity;BMP_temperature;BMP_pressure;BME280_temperature;BME280_humidity;BME280_pressure;Samples;Min_cycle;Max_cycle;Signal;HPM_P1;HPM_P2
2023/10/23 00:01:40;;;;;;;23.52;7.10;;;;;;;12.96;91.11;100603.81;5095008;28;20051;-67
2023/10/23 00:04:09;;;;;;;27.08;7.68;;;;;;;12.76;90.78;100595.44;5096085;28;20055;-67
2023/10/23 00:06:37;;;;;;;19.60;7.45;;;;;;;12.81;90.92;100606.31;5077466;28;20392;-68
2023/10/23 00:09:04;;;;;;;21.40;7.57;;;;;;;12.74;91.61;100597.72;5095488;28;20043;-67
2023/10/23 00:11:32;;;;;;;18.75;7.32;;;;;;;12.72;91.91;100584.25;5077401;28;20040;-67
2023/10/23 00:13:59;;;;;;;18.08;6.10;;;;;;;12.91;90.78;100586.59;5057882;28;20060;-66
2023/10/23 00:16:27;;;;;;;21.50;7.45;;;;;;;12.84;90.98;100594.59;5088357;28;20059;-67
2023/10/23 00:18:54;;;;;;;24.77;7.82;;;;;;;12.97;90.18;100588.06;5115991;28;20486;-66
2023/10/23 00:21:22;;;;;;;21.10;6.78;;;;;;;12.89;90.53;100597.19;5115816;28;20054;-67
2023/10/23 00:23:50;;;;;;;19.98;7.13;;;;;;;12.88;90.44;100596.38;5092759;28;20048;-67
2023/10/23 00:26:17;;;;;;;20.55;7.25;;;;;;;13.00;90.26;100588.19;5087588;28;20048;-67
2023/10/23 00:28:50;;;;;;;22.65;7.78;;;;;;;12.89;90.23;100586.13;5060999;28;20071;-67
2023/10/23 00:31:17;;;;;;;21.45;7.88;;;;;;;13.02;90.06;100577.63;5095080;28;20046;-67
2023/10/23 00:33:45;;;;;;;23.67;8.18;;;;;;;12.96;89.55;100573.41;5095604;28;20045;-67
2023/10/23 00:36:12;;;;;;;23.38;7.07;;;;;;;12.81;90.36;100582.25;5095403;28;20044;-67
2023/10/23 00:38:40;;;;;;;17.88;6.85;;;;;;;12.78;90.89;100571.84;5095084;28;20063;-68
2023/10/23 00:41:07;;;;;;;25.05;7.60;;;;;;;12.80;90.79;100566.81;5059823;28;20040;-67
2023/10/23 00:43:34;;;;;;;18.75;7.60;;;;;;;12.87;91.18;100577.34;5094675;28;20058;-66
2023/10/23 00:46:10;;;;;;;19.25;6.72;;;;;;;13.02;89.86;100569.31;5093929;28;20055;-67
2023/10/23 00:48:38;;;;;;;19.80;6.55;;;;;;;13.13;88.91;100565.03;5094874;28;20376;-68
2023/10/23 00:51:06;;;;;;;23.83;6.20;;;;;;;12.85;89.24;100568.59;5076065;28;20151;-66
2023/10/23 00:53:36;;;;;;;18.63;6.22;;;;;;;12.74;90.21;100562.63;5076209;28;20435;-66
2023/10/23 00:56:06;;;;;;;19.45;6.60;;;;;;;12.51;90.92;100575.06;5077103;28;20052;-67
2023/10/23 00:58:38;;;;;;;22.80;6.43;;;;;;;12.51;91.86;100568.72;5065409;28;20047;-67
2023/10/23 01:01:09;;;;;;;21.48;6.93;;;;;;;12.44;92.07;100580.28;5091310;28;20040;-67
2023/10/23 01:03:36;;;;;;;23.65;6.10;;;;;;;12.32;92.81;100580.13;5074322;28;20044;-69
2023/10/23 01:06:04;;;;;;;22.33;6.75;;;;;;;12.38;93.44;100578.81;5074554;28;20052;-70
2023/10/23 01:08:32;;;;;;;21.88;7.40;;;;;;;12.25;93.33;100572.38;5075419;28;20056;-67
2023/10/23 01:10:59;;;;;;;19.60;6.53;;;;;;;12.34;93.33;100566.81;5094140;28;20044;-68
2023/10/23 01:13:27;;;;;;;18.52;7.00;;;;;;;12.32;93.06;100561.63;5074973;28;20044;-66
2023/10/23 01:15:54;;;;;;;18.85;6.55;;;;;;;12.38;93.84;100560.28;5086603;28;20051;-67
2023/10/23 01:18:22;;;;;;;20.33;5.97;;;;;;;12.48;92.77;100564.66;5096726;28;20508;-68
2023/10/23 01:20:49;;;;;;;17.58;6.28;;;;;;;12.40;92.89;100560.78;5063337;28;20047;-71
2023/10/23 01:23:17;;;;;;;20.05;6.82;;;;;;;12.49;92.72;100546.94;5050157;28;20056;-70
2023/10/23 01:25:44;;;;;;;21.52;7.43;;;;;;;12.50;92.27;100543.03;5074795;28;20044;-70
2023/10/23 01:28:11;;;;;;;23.27;7.65;;;;;;;12.39;92.57;100544.53;5060577;28;20055;-71
2023/10/23 01:30:40;;;;;;;20.25;6.82;;;;;;;12.54;91.96;100546.75;5076815;28;20399;-71
2023/10/23 01:33:08;;;;;;;25.52;7.40;;;;;;;12.53;91.66;100541.56;5059527;28;20483;-69
2023/10/23 01:35:35;;;;;;;18.95;6.25;;;;;;;12.58;91.31;100542.19;5076590;28;20052;-70
2023/10/23 01:38:02;;;;;;;16.20;6.03;;;;;;;12.45;91.88;100544.03;5076495;28;20056;-66
2023/10/23 01:40:30;;;;;;;29.10;7.70;;;;;;;12.31;92.36;100542.59;5094224;28;20040;-67
2023/10/23 01:42:57;;;;;;;14.48;5.50;;;;;;;12.31;92.69;100537.88;5094212;28;20055;-67
2023/10/23 01:45:25;;;;;;;19.90;6.15;;;;;;;12.42;92.43;100535.59;5059923;28;20055;-70
2023/10/23 01:47:52;;;;;;;18.08;6.28;;;;;;;12.43;92.14;100534.44;5059624;28;20526;-70
2023/10/23 01:50:20;;;;;;;18.70;5.13;;;;;;;12.44;92.16;100522.25;5093920;28;20063;-66
2023/10/23 01:52:50;;;;;;;;;;;;;;;12.32;92.12;100530.44;5094253;28;20055;-67
2023/10/23 01:55:17;;;;;;;17.92;5.35;;;;;;;12.54;91.46;100521.88;5092806;28;19927;-66
2023/10/23 01:57:45;;;;;;;15.63;4.78;;;;;;;12.54;91.25;100519.13;5059504;28;20487;-67
2023/10/23 02:00:13;;;;;;;20.25;5.55;;;;;;;12.54;90.75;100515.53;5095629;28;20039;-67
2023/10/23 02:02:41;;;;;;;20.70;5.75;;;;;;;12.34;91.29;100508.81;5095429;28;20058;-67
2023/10/23 02:05:09;;;;;;;15.82;5.25;;;;;;;12.43;91.38;100512.34;5098062;28;20048;-67
2023/10/23 02:07:36;;;;;;;18.20;5.13;;;;;;;12.30;91.73;100505.09;5072362;28;20156;-67
2023/10/23 02:10:04;;;;;;;20.90;5.30;;;;;;;12.28;92.08;100510.94;5073307;28;20055;-66
2023/10/23 02:12:33;;;;;;;15.05;5.00;;;;;;;12.36;91.99;100507.31;5072064;28;20059;-67
2023/10/23 02:15:00;;;;;;;23.35;5.80;;;;;;;12.45;91.38;100510.88;5071551;28;20052;-68
2023/10/23 02:17:28;;;;;;;18.75;5.85;;;;;;;12.28;91.46;100515.63;5057059;28;20048;-67
2023/10/23 02:19:55;;;;;;;18.55;5.80;;;;;;;12.20;91.95;100519.25;5053047;28;20064;-66
2023/10/23 02:22:23;;;;;;;14.10;5.13;;;;;;;12.22;92.38;100512.25;5052097;28;20064;-66
2023/10/23 02:24:50;;;;;;;14.98;5.85;;;;;;;12.27;92.33;100514.03;5052012;28;20067;-67
2023/10/23 02:27:19;;;;;;;19.75;5.68;;;;;;;12.20;92.47;100506.22;5052392;28;20056;-68
2023/10/23 02:29:47;;;;;;;20.05;5.60;;;;;;;12.29;92.53;100498.75;5068420;28;20660;-67
2023/10/23 02:32:14;;;;;;;20.95;5.63;;;;;;;12.24;92.14;100503.63;5051732;28;20060;-67
2023/10/23 02:34:43;;;;;;;15.57;5.63;;;;;;;11.86;93.98;100494.47;5051796;28;20666;-67
2023/10/23 02:37:11;;;;;;;16.33;5.63;;;;;;;12.05;93.64;100490.22;5052327;28;20064;-67
2023/10/23 02:39:38;;;;;;;20.50;5.60;;;;;;;12.07;93.42;100493.44;5051323;28;20072;-67
2023/10/23 02:42:06;;;;;;;19.70;5.47;;;;;;;12.06;93.37;100497.38;5052022;28;20045;-66
2023/10/23 02:44:34;;;;;;;17.40;4.85;;;;;;;12.23;92.73;100489.03;5053946;28;20052;-66
2023/10/23 02:47:02;;;;;;;26.58;5.68;;;;;;;12.22;92.02;100489.38;5057331;28;20057;-67
2023/10/23 02:49:30;;;;;;;19.33;5.63;;;;;;;12.10;91.86;100486.47;5052207;28;20053;-67
2023/10/23 02:51:57;;;;;;;15.38;5.50;;;;;;;12.23;91.96;100488.22;5054526;28;20045;-68
2023/10/23 02:54:24;;;;;;;19.77;5.03;;;;;;;12.28;91.57;100486.09;5038896;28;20415;-67
2023/10/23 02:56:52;;;;;;;14.88;4.80;;;;;;;12.24;91.53;100473.25;5055882;28;20056;-65
2023/10/23 02:59:20;;;;;;;19.35;4.50;;;;;;;12.04;92.45;100473.97;5059850;28;20048;-67
2023/10/23 03:01:48;;;;;;;14.13;4.35;;;;;;;12.00;92.08;100473.00;5055476;28;20051;-66
2023/10/23 03:04:16;;;;;;;15.18;4.05;;;;;;;12.01;91.88;100471.88;5054212;28;20067;-68
2023/10/23 03:06:43;;;;;;;19.48;4.75;;;;;;;11.96;91.95;100480.34;5059784;28;20057;-67
2023/10/23 03:09:11;;;;;;;16.50;4.63;;;;;;;11.97;92.07;100476.44;5095190;28;20056;-67
2023/10/23 03:11:40;;;;;;;25.60;4.80;;;;;;;12.05;91.67;100476.41;5096923;28;20051;-66
2023/10/23 03:14:08;;;;;;;15.88;4.95;;;;;;;12.05;91.65;100483.88;5094351;28;20047;-67
2023/10/23 03:16:35;;;;;;;21.92;5.65;;;;;;;12.07;91.85;100467.78;5105512;28;20047;-67
2023/10/23 03:19:03;;;;;;;18.45;4.65;;;;;;;12.09;91.44;100462.75;5117317;28;20050;-67
2023/10/23 03:21:32;;;;;;;13.85;4.85;;;;;;;12.01;91.69;100464.38;5082024;28;20055;-67
2023/10/23 03:23:59;;;;;;;13.73;4.70;;;;;;;12.01;90.83;100461.63;5060905;28;20543;-67
2023/10/23 03:26:28;;;;;;;16.08;4.82;;;;;;;12.16;91.10;100452.84;5078700;28;20059;-68
2023/10/23 03:28:55;;;;;;;15.10;4.57;;;;;;;12.09;90.79;100452.53;5078136;28;20051;-67
2023/10/23 03:31:23;;;;;;;15.40;4.80;;;;;;;12.19;90.62;100452.16;5062126;28;20098;-68
2023/10/23 03:33:51;;;;;;;16.80;4.65;;;;;;;12.14;90.64;100459.81;5077427;28;20064;-67
2023/10/23 03:36:19;;;;;;;13.32;4.22;;;;;;;12.14;90.49;100455.09;5096454;28;20052;-66
2023/10/23 03:38:47;;;;;;;16.90;4.57;;;;;;;12.19;90.10;100454.09;5096273;28;20040;-66
2023/10/23 03:41:14;;;;;;;17.73;4.05;;;;;;;12.14;90.43;100451.53;5076995;28;20048;-67
2023/10/23 03:43:41;;;;;;;14.30;4.15;;;;;;;11.93;91.39;100442.34;5096246;28;20048;-68
2023/10/23 03:46:09;;;;;;;15.18;4.85;;;;;;;11.90;91.41;100443.81;5061684;28;20535;-67
2023/10/23 03:48:37;;;;;;;16.88;4.60;;;;;;;11.70;92.63;100449.22;5090627;28;20056;-67
2023/10/23 03:51:05;;;;;;;16.55;4.38;;;;;;;11.95;92.37;100434.53;5057924;28;20047;-66
2023/10/23 03:53:32;;;;;;;17.50;4.82;;;;;;;11.87;92.43;100427.09;5057484;28;20053;-67
2023/10/23 03:55:59;;;;;;;15.55;5.03;;;;;;;11.79;92.28;100430.69;5087374;28;20044;-67
2023/10/23 03:58:27;;;;;;;14.50;4.93;;;;;;;11.99;92.01;100430.81;5095903;28;20055;-67
2023/10/23 04:00:54;;;;;;;15.98;4.30;;;;;;;11.84;91.79;100417.53;5077065;28;20059;-68
2023/10/23 04:03:22;;;;;;;14.48;5.25;;;;;;;11.91;91.96;100412.31;5061413;28;20052;-67
2023/10/23 04:05:49;;;;;;;20.63;5.47;;;;;;;11.85;92.22;100416.41;5060416;28;20260;-67
2023/10/23 04:08:17;;;;;;;15.75;4.40;;;;;;;11.80;92.27;100404.72;5077503;28;20060;-68
2023/10/23 04:10:45;;;;;;;13.02;3.97;;;;;;;11.72;92.93;100406.34;5095484;28;20048;-67
2023/10/23 04:13:13;;;;;;;19.17;4.80;;;;;;;11.80;92.79;100393.69;5070521;28;20043;-67
2023/10/23 04:15:50;;;;;;;19.48;4.50;;;;;;;11.91;92.60;100414.25;5095735;28;20069;-67
2023/10/23 04:18:18;;;;;;;13.65;4.65;;;;;;;11.80;91.99;100400.00;5098392;28;20051;-67
2023/10/23 04:20:45;;;;;;;14.75;4.88;;;;;;;11.93;92.10;100407.28;5097417;28;20044;-66
2023/10/23 04:23:12;;;;;;;13.63;3.78;;;;;;;12.03;91.16;100401.38;5098031;28;20063;-67
2023/10/23 04:25:39;;;;;;;16.67;4.70;;;;;;;12.04;91.16;100399.44;5115832;28;20052;-66
2023/10/23 04:28:07;;;;;;;18.15;4.15;;;;;;;12.07;90.28;100399.59;5113210;28;20043;-66
2023/10/23 04:30:34;;;;;;;13.82;3.42;;;;;;;12.04;90.02;100396.69;5076885;28;20060;-66
2023/10/23 04:33:02;;;;;;;13.60;3.90;;;;;;;11.97;90.13;100396.38;5076908;28;20044;-67
2023/10/23 04:35:31;;;;;;;20.05;3.72;;;;;;;11.90;90.84;100396.91;5095242;28;20051;-66
2023/10/23 04:37:58;;;;;;;14.35;3.88;;;;;;;11.89;90.05;100403.53;5077320;28;20078;-66
2023/10/23 04:40:25;;;;;;;16.42;3.58;;;;;;;11.93;89.77;100410.03;5077056;28;20579;-66
2023/10/23 04:42:53;;;;;;;13.82;3.28;;;;;;;12.12;89.23;100395.81;5076999;28;20494;-67
2023/10/23 04:45:20;;;;;;;11.15;3.08;;;;;;;12.09;88.62;100393.72;5095310;28;20059;-67
2023/10/23 04:47:47;;;;;;;13.68;3.60;;;;;;;12.21;86.83;100391.06;5076422;28;20177;-67
2023/10/23 04:50:16;;;;;;;15.05;2.95;;;;;;;12.00;87.20;100390.19;5072179;28;20063;-67
2023/10/23 04:52:43;;;;;;;13.85;3.05;;;;;;;12.01;86.75;100391.81;5074158;28;20075;-66
2023/10/23 04:55:10;;;;;;;10.77;2.80;;;;;;;12.35;85.84;100383.38;5056145;28;20388;-67
2023/10/23 04:57:38;;;;;;;15.13;2.90;;;;;;;12.17;84.62;100377.13;5057456;28;20048;-67
2023/10/23 05:00:06;;;;;;;11.50;2.50;;;;;;;12.22;85.13;100371.41;5111694;28;20071;-66
2023/10/23 05:02:33;;;;;;;13.93;3.53;;;;;;;12.19;84.48;100366.56;5115309;28;20142;-67
2023/10/23 05:05:01;;;;;;;16.67;3.10;;;;;;;11.83;86.37;100362.66;5096418;28;20403;-67
2023/10/23 05:07:28;;;;;;;12.93;2.83;;;;;;;12.15;85.96;100354.56;5105090;28;20368;-67
2023/10/23 05:09:55;;;;;;;12.90;2.72;;;;;;;12.13;84.42;100353.28;5082832;28;20051;-67
2023/10/23 05:12:23;;;;;;;10.52;2.72;;;;;;;12.15;85.52;100346.28;5078259;28;20051;-66
2023/10/23 05:14:51;;;;;;;8.95;2.28;;;;;;;12.02;85.49;100346.50;5090638;28;20083;-70
2023/10/23 05:17:18;;;;;;;13.70;2.28;;;;;;;12.02;85.94;100338.22;5090598;28;20402;-69
2023/10/23 05:19:46;;;;;;;11.55;2.55;;;;;;;11.91;86.16;100351.59;5109812;28;20051;-70
2023/10/23 05:22:14;;;;;;;12.93;3.22;;;;;;;11.99;85.75;100336.97;5074835;28;20051;-70
2023/10/23 05:24:47;;;;;;;14.40;2.72;;;;;;;12.07;85.19;100332.50;5076209;28;20060;-70
2023/10/23 05:27:15;;;;;;;12.25;2.83;;;;;;;12.27;84.54;100337.28;5094197;28;20549;-71
2023/10/23 05:29:43;;;;;;;13.00;2.40;;;;;;;12.38;83.36;100331.03;5075483;28;20466;-71
2023/10/23 05:32:10;;;;;;;11.63;2.60;;;;;;;12.38;83.27;100327.47;5076457;28;20062;-70
2023/10/23 05:34:38;;;;;;;10.45;2.50;;;;;;;12.31;83.72;100325.22;5093227;28;20055;-70
2023/10/23 05:37:05;;;;;;;10.15;2.65;;;;;;;12.41;83.67;100326.81;5093292;28;20055;-70
2023/10/23 05:39:32;;;;;;;10.55;2.85;;;;;;;12.29;83.16;100318.44;5075685;28;20082;-71
2023/10/23 05:42:00;;;;;;;12.45;2.47;;;;;;;12.28;83.57;100319.56;5094439;28;20035;-70
2023/10/23 05:44:27;;;;;;;12.00;3.10;;;;;;;12.37;83.21;100303.75;5076582;28;20047;-70
2023/10/23 05:46:55;;;;;;;13.82;2.88;;;;;;;12.48;82.47;100305.00;5082486;28;20059;-71
2023/10/23 05:49:23;;;;;;;14.45;3.28;;;;;;;12.50;82.53;100305.44;5047960;28;20057;-70
2023/10/23 05:51:50;;;;;;;16.85;3.17;;;;;;;12.59;82.17;100297.91;5037938;28;20055;-71
2023/10/23 05:54:18;;;;;;;13.48;2.90;;;;;;;12.57;82.02;100302.94;5039121;28;20576;-71
2023/10/23 05:56:45;;;;;;;17.00;4.13;;;;;;;12.34;82.82;100298.91;5086809;28;20071;-71
2023/10/23 05:59:12;;;;;;;15.80;3.35;;;;;;;12.48;82.49;100300.25;5068288;28;20047;-70
2023/10/23 06:01:40;;;;;;;12.20;3.10;;;;;;;12.37;82.44;100298.25;5075323;28;20052;-70
2023/10/23 06:04:07;;;;;;;15.68;2.90;;;;;;;12.40;83.13;100298.38;5074854;28;20048;-70
2023/10/23 06:06:34;;;;;;;10.32;3.15;;;;;;;12.33;83.20;100289.00;5093387;28;20067;-71
2023/10/23 06:09:04;;;;;;;10.40;2.45;;;;;;;12.57;82.37;100300.19;5074378;28;20048;-70
2023/10/23 06:11:31;;;;;;;8.57;3.03;;;;;;;12.50;81.57;100296.38;5093316;28;20418;-70
2023/10/23 06:13:58;;;;;;;9.65;2.47;;;;;;;12.48;81.66;100296.72;5092937;28;20066;-70
2023/10/23 06:16:26;;;;;;;9.68;2.90;;;;;;;12.32;82.73;100295.66;5081364;28;20051;-71
2023/10/23 06:18:53;;;;;;;11.57;2.80;;;;;;;12.25;82.99;100284.34;5103174;28;20052;-71
2023/10/23 06:21:20;;;;;;;8.75;2.22;;;;;;;12.32;82.64;100282.69;5075806;28;20056;-72
2023/10/23 06:23:48;;;;;;;15.63;2.85;;;;;;;12.35;82.38;100284.75;5093466;28;20063;-71
2023/10/23 06:26:15;;;;;;;12.02;3.13;;;;;;;12.68;81.89;100286.78;5075509;28;20048;-70
2023/10/23 06:28:43;;;;;;;9.70;2.75;;;;;;;12.41;81.98;100280.66;5075602;28;20056;-71
2023/10/23 06:31:11;;;;;;;14.57;3.00;;;;;;;12.19;82.83;100292.00;5093691;28;20056;-72
2023/10/23 06:33:42;;;;;;;13.88;7.68;;;;;;;12.40;83.41;100287.31;5094103;28;20040;-70
2023/10/23 06:36:10;;;;;;;13.02;4.38;;;;;;;12.39;83.00;100277.44;5092665;28;20691;-70
2023/10/23 06:38:38;;;;;;;10.77;2.92;;;;;;;12.45;82.67;100281.59;5075185;28;20052;-69
2023/10/23 06:41:06;;;;;;;10.15;2.80;;;;;;;12.43;82.64;100269.25;5074800;28;20048;-72
2023/10/23 06:43:37;;;;;;;24.42;3.90;;;;;;;12.68;81.40;100272.97;5075798;28;20075;-69
2023/10/23 06:46:05;;;;;;;16.80;3.33;;;;;;;12.56;81.92;100276.47;5074281;28;20068;-69
2023/10/23 06:48:32;;;;;;;13.65;3.67;;;;;;;12.48;81.58;100272.63;5054547;28;20048;-69
2023/10/23 06:51:00;;;;;;;19.02;3.97;;;;;;;12.52;81.49;100277.50;5081692;28;20059;-71
2023/10/23 06:53:27;;;;;;;18.15;3.22;;;;;;;12.54;81.44;100267.72;5087483;28;20048;-71
2023/10/23 06:55:55;;;;;;;11.32;3.00;;;;;;;12.46;81.30;100266.63;5063281;28;20455;-68
2023/10/23 06:58:22;;;;;;;12.30;2.70;;;;;;;12.52;81.79;100260.94;5084998;28;20061;-69
2023/10/23 07:00:50;;;;;;;11.15;3.10;;;;;;;12.60;81.82;100269.16;5030133;28;20530;-68
2023/10/23 07:03:17;;;;;;;10.48;2.58;;;;;;;12.79;80.60;100265.88;5083213;28;20048;-69
2023/10/23 07:05:47;;;;;;;11.38;3.10;;;;;;;12.55;80.76;100271.28;5072560;28;20036;-71
2023/10/23 07:08:16;;;;;;;13.57;2.92;;;;;;;12.76;80.27;100267.34;5071597;28;20522;-70
2023/10/23 07:10:43;;;;;;;13.43;3.05;;;;;;;12.75;81.06;100271.28;5044891;28;20071;-71
2023/10/23 07:13:10;;;;;;;9.13;2.83;;;;;;;12.95;79.31;100264.13;5072531;28;20051;-72
2023/10/23 07:15:52;;;;;;;12.25;3.25;;;;;;;12.76;79.77;100267.34;5047032;28;20422;-67
2023/10/23 07:18:21;;;;;;;12.63;3.22;;;;;;;12.75;79.75;100270.47;5081632;28;20051;-67
2023/10/23 07:20:56;;;;;;;8.65;2.65;;;;;;;12.84;80.19;100273.97;5053250;28;20071;-70
2023/10/23 07:23:24;;;;;;;12.07;3.33;;;;;;;12.70;80.55;100265.97;5080534;28;20531;-70
2023/10/23 07:26:07;;;;;;;8.32;2.90;;;;;;;12.90;79.88;100256.03;5067084;28;20060;-70
2023/10/23 07:28:38;;;;;;;11.38;2.83;;;;;;;12.93;79.50;100247.06;5066125;28;20166;-70
2023/10/23 07:31:10;;;;;;;11.63;3.20;;;;;;;12.90;79.86;100250.50;5055994;28;20058;-70
2023/10/23 07:33:38;;;;;;;13.82;3.10;;;;;;;12.82;79.71;100240.31;5039956;28;20048;-70
2023/10/23 07:36:06;;;;;;;10.85;3.50;;;;;;;12.84;80.47;100238.03;5071608;28;20059;-69
2023/10/23 07:38:35;;;;;;;12.10;3.45;;;;;;;12.77;80.02;100230.31;5092247;28;20515;-70
2023/10/23 07:41:03;;;;;;;14.38;3.42;;;;;;;12.72;79.81;100233.28;5073416;28;20054;-68
2023/10/23 07:43:30;;;;;;;13.82;3.00;;;;;;;12.65;80.67;100223.91;5092647;28;20052;-67
2023/10/23 07:46:07;;;;;;;12.07;3.15;;;;;;;12.72;80.68;100227.75;5054620;28;20055;-68
2023/10/23 07:48:44;;;;;;;16.30;3.22;;;;;;;12.84;80.70;100221.44;5072907;28;20513;-68
2023/10/23 07:51:12;;;;;;;15.57;3.40;;;;;;;13.05;79.99;100220.28;5088110;28;20047;-68
2023/10/23 07:53:42;;;;;;;15.05;3.83;;;;;;;13.00;78.82;100211.38;5084876;28;20040;-67
2023/10/23 07:56:12;;;;;;;18.25;3.67;;;;;;;13.03;79.24;100210.72;5093138;28;20051;-67
2023/10/23 07:58:40;;;;;;;;;;;;;;;13.04;79.09;100210.38;5093215;28;20055;-67
2023/10/23 08:01:09;;;;;;;12.68;3.17;;;;;;;12.80;79.88;100196.44;5089777;28;19920;-68
2023/10/23 08:03:40;;;;;;;13.45;2.65;;;;;;;12.88;79.90;100206.63;5066329;28;20071;-69
2023/10/23 08:06:10;;;;;;;13.95;3.15;;;;;;;12.95;79.62;100203.28;5073105;28;20040;-68
2023/10/23 08:08:39;;;;;;;;;;;;;;;13.03;78.69;100194.13;5048671;28;20052;-68
2023/10/23 08:11:07;;;;;;;11.35;2.60;;;;;;;13.00;78.92;100194.78;5092322;28;19920;-67
2023/10/23 08:13:38;;;;;;;14.77;3.42;;;;;;;13.30;78.86;100188.75;5084591;28;20046;-70
2023/10/23 08:16:06;;;;;;;16.10;3.67;;;;;;;13.25;77.93;100188.97;5084599;28;20051;-68
2023/10/23 08:18:36;;;;;;;11.95;2.95;;;;;;;13.20;77.91;100186.44;5063649;28;20097;-67
2023/10/23 08:21:15;;;;;;;12.07;3.13;;;;;;;13.17;78.01;100184.38;5047074;28;20048;-65
2023/10/23 08:23:46;;;;;;;13.60;3.50;;;;;;;13.13;78.13;100182.63;5071641;28;20036;-67
2023/10/23 08:26:13;;;;;;;15.30;2.88;;;;;;;13.28;78.66;100184.72;5089363;28;20056;-68
2023/10/23 08:28:40;;;;;;;16.85;3.80;;;;;;;13.42;77.48;100182.44;5061160;28;20056;-67
2023/10/23 08:31:28;;;;;;;10.93;3.20;;;;;;;13.47;77.40;100184.97;5085170;28;20068;-66
2023/10/23 08:34:07;;;;;;;12.50;3.50;;;;;;;13.43;77.06;100175.72;5078000;28;20498;-66
2023/10/23 08:36:35;;;;;;;10.93;2.97;;;;;;;13.67;76.44;100177.72;5069770;28;20499;-64
2023/10/23 08:39:03;;;;;;;10.63;2.88;;;;;;;13.58;76.18;100178.63;5091814;28;20483;-66
2023/10/23 08:41:31;;;;;;;10.95;2.40;;;;;;;13.85;75.33;100184.59;5074812;28;20052;-67
2023/10/23 08:43:59;;;;;;;12.52;3.33;;;;;;;13.52;76.29;100179.19;5088649;28;20041;-69
2023/10/23 08:46:37;;;;;;;12.88;2.45;;;;;;;13.45;76.12;100185.31;5062332;28;20411;-67
2023/10/23 08:49:18;;;;;;;11.70;3.00;;;;;;;13.45;76.18;100176.19;5047901;28;20052;-67
2023/10/23 08:51:49;;;;;;;18.05;3.50;;;;;;;13.70;75.17;100172.28;5088307;28;20051;-68
2023/10/23 08:54:19;;;;;;;11.32;2.38;;;;;;;13.60;75.74;100171.94;5074180;28;20048;-66
2023/10/23 08:56:54;;;;;;;7.43;2.60;;;;;;;13.56;75.37;100163.53;5071990;28;20507;-67
2023/10/23 08:59:23;;;;;;;10.95;2.70;;;;;;;13.56;75.90;100163.53;5071109;28;20048;-66
2023/10/23 09:01:51;;;;;;;13.07;2.88;;;;;;;13.40;76.37;100166.19;5052082;28;20055;-67
2023/10/23 09:04:18;;;;;;;11.90;2.75;;;;;;;13.60;76.24;100152.56;5088856;28;20059;-68
2023/10/23 09:06:55;;;;;;;13.15;2.72;;;;;;;13.42;76.03;100149.22;5053813;28;20048;-67
2023/10/23 09:09:26;;;;;;;10.77;3.28;;;;;;;13.29;76.09;100147.59;5083380;28;20732;-67
2023/10/23 09:11:58;;;;;;;10.35;2.72;;;;;;;13.41;75.99;100137.34;5070189;28;20443;-67
2023/10/23 09:14:28;;;;;;;9.68;2.50;;;;;;;13.47;75.84;100133.22;5091870;28;20052;-67
2023/10/23 09:16:56;;;;;;;16.95;4.85;;;;;;;13.36;75.58;100134.81;5068703;28;20054;-67
2023/10/23 09:19:36;;;;;;;8.48;2.20;;;;;;;13.31;76.43;100137.00;5085677;28;20044;-67
2023/10/23 09:22:12;;;;;;;16.00;2.25;;;;;;;13.33;76.05;100129.19;5077168;28;20056;-71
2023/10/23 09:24:43;;;;;;;6.65;2.08;;;;;;;13.42;75.76;100127.88;5078515;28;20122;-67
2023/10/23 09:27:10;;;;;;;13.00;2.00;;;;;;;13.52;76.11;100134.94;5086699;28;20070;-68
2023/10/23 09:29:38;;;;;;;7.93;2.13;;;;;;;13.68;75.49;100129.50;5086332;28;20052;-67
2023/10/23 09:32:05;;;;;;;11.07;1.92;;;;;;;13.68;75.33;100126.72;5092018;28;20055;-67
2023/10/23 09:34:38;;;;;;;9.68;2.42;;;;;;;13.66;75.38;100124.31;5088898;28;20043;-67
2023/10/23 09:37:05;;;;;;;11.70;2.20;;;;;;;13.66;76.09;100121.53;5084697;28;20063;-69
2023/10/23 09:39:34;;;;;;;8.80;2.13;;;;;;;13.62;77.01;100123.38;5086528;28;20067;-67
2023/10/23 09:42:02;;;;;;;10.30;2.33;;;;;;;13.84;76.59;100122.09;5073493;28;20056;-68
2023/10/23 09:44:30;;;;;;;8.20;2.85;;;;;;;13.78;77.27;100121.53;5055740;28;20047;-68
2023/10/23 09:46:58;;;;;;;10.70;2.90;;;;;;;13.52;78.24;100113.63;5057194;28;20048;-67
2023/10/23 09:49:27;;;;;;;10.70;2.33;;;;;;;13.93;77.51;100106.16;5088294;28;20067;-69
2023/10/23 09:52:08;;;;;;;10.88;2.58;;;;;;;14.12;77.50;100098.00;5086866;28;20048;-70
2023/10/23 09:54:46;;;;;;;7.38;1.98;;;;;;;14.21;75.55;100093.13;5088727;28;20466;-67
2023/10/23 09:57:17;;;;;;;8.60;2.35;;;;;;;13.85;77.35;100090.47;5058894;28;20403;-69
2023/10/23 10:00:05;;;;;;;11.18;2.20;;;;;;;13.55;79.24;100079.69;5084052;28;20043;-71
2023/10/23 10:02:59;;;;;;;10.38;2.17;;;;;;;13.69;79.12;100082.09;5083798;28;20048;-70
2023/10/23 10:05:45;;;;;;;10.27;2.08;;;;;;;13.53;80.25;100075.66;5086518;28;20048;-68
2023/10/23 10:08:19;;;;;;;9.55;2.20;;;;;;;13.64;80.91;100070.44;5064095;28;20059;-70
2023/10/23 10:10:50;;;;;;;9.88;3.05;;;;;;;13.52;81.77;100065.75;5081012;28;20051;-68
2023/10/23 10:13:21;;;;;;;8.98;2.58;;;;;;;13.71;81.76;100060.41;5066484;28;20049;-70
2023/10/23 10:16:04;;;;;;;8.20;2.70;;;;;;;13.87;80.39;100055.75;5089500;28;20936;-73
2023/10/23 10:18:38;;;;;;;9.23;3.10;;;;;;;13.79;81.63;100053.91;5068550;28;20048;-72
2023/10/23 10:21:27;;;;;;;7.97;3.03;;;;;;;13.65;81.31;100047.97;5085755;28;20044;-69
2023/10/23 10:24:03;;;;;;;9.15;2.17;;;;;;;13.79;80.42;100042.06;5034445;28;20048;-72
2023/10/23 10:26:33;;;;;;;9.07;2.10;;;;;;;13.58;81.53;100040.25;5086383;28;20059;-67
2023/10/23 10:29:00;;;;;;;9.30;1.92;;;;;;;13.48;82.04;100034.41;5084828;28;20048;-69
2023/10/23 10:32:08;;;;;;;10.50;3.10;;;;;;;13.44;83.04;100036.28;5086243;28;20055;-70
2023/10/23 10:35:25;;;;;;;7.60;2.10;;;;;;;13.36;83.94;100037.19;5073941;28;20060;-69
2023/10/23 10:38:15;;;;;;;10.40;2.22;;;;;;;13.58;83.77;100034.72;5085378;28;20395;-71
2023/10/23 10:40:58;;;;;;;7.85;2.05;;;;;;;13.54;84.00;100036.59;5075688;28;20518;-68
2023/10/23 10:43:32;;;;;;;10.55;2.28;;;;;;;13.57;83.45;100041.44;5088385;28;20056;-68
2023/10/23 10:46:02;;;;;;;11.23;2.42;;;;;;;13.44;84.61;100041.81;5086961;28;20076;-69
2023/10/23 10:48:43;;;;;;;10.05;3.08;;;;;;;13.82;83.28;100033.84;5090676;28;20051;-68
2023/10/23 10:51:23;;;;;;;7.82;2.13;;;;;;;14.08;82.28;100033.41;5058133;28;20055;-68
2023/10/23 10:54:03;;;;;;;9.52;2.78;;;;;;;13.60;83.68;100037.13;5088823;28;20052;-68
2023/10/23 10:56:31;;;;;;;8.98;3.25;;;;;;;13.46;84.98;100033.94;5072690;28;20211;-69
2023/10/23 10:59:03;;;;;;;7.95;2.67;;;;;;;13.65;83.98;100031.34;5092060;28;20052;-69
2023/10/23 11:01:31;;;;;;;7.53;1.98;;;;;;;13.69;83.72;100029.50;5073109;28;20048;-69
2023/10/23 11:03:59;;;;;;;12.95;5.05;;;;;;;13.36;85.73;100024.19;5092191;28;20044;-71
2023/10/23 11:06:29;;;;;;;8.80;2.80;;;;;;;13.26;87.16;100010.84;5075078;28;20055;-72
2023/10/23 11:08:58;;;;;;;7.40;2.80;;;;;;;13.33;87.99;100005.53;5078269;28;20052;-69
2023/10/23 11:11:27;;;;;;;6.38;2.10;;;;;;;13.27;89.29;100001.38;5060914;28;20060;-69
2023/10/23 11:13:54;;;;;;;8.90;2.70;;;;;;;13.12;90.24;99996.56;5052811;28;20146;-69
2023/10/23 11:16:22;;;;;;;8.73;3.00;;;;;;;13.04;91.58;99988.41;5078130;28;20403;-70
2023/10/23 11:18:51;;;;;;;8.18;2.20;;;;;;;13.15;91.98;99984.81;5068085;28;20056;-72
2023/10/23 11:21:23;;;;;;;10.02;2.58;;;;;;;13.20;92.36;99989.28;5095879;28;20047;-69
2023/10/23 11:23:54;;;;;;;13.93;2.95;;;;;;;13.12;91.96;99982.75;5078411;28;20051;-70
2023/10/23 11:26:24;;;;;;;8.73;2.90;;;;;;;13.00;94.13;99976.38;5096644;28;20048;-68
2023/10/23 11:28:51;;;;;;;8.52;3.08;;;;;;;13.04;95.19;99977.34;5073400;28;20059;-70
2023/10/23 11:31:21;;;;;;;9.75;2.92;;;;;;;13.04;95.25;99974.56;5096429;28;20044;-69